Time;durP1;ratioP1;P1;durP2;ratioP2;P2;SDS_P1;SDS_P2;PMS_P1;PMS_P2;Temp;Humidity;BMP_temperature;BMP_pressure;BME280_temperature;BME280_humidity;BME280_pressure;Samples;Min_cycle;Max_cycle;Signal;HPM_P1;HPM_P2
2021/07/13 00:01:50;;;;;;;0.95;0.32;;;;;;;21.36;56.42;95994.28;4968365;28;20442;-59
2021/07/13 00:04:15;;;;;;;0.40;0.20;;;;;;;21.31;56.39;95971.88;4968731;28;20022;-62
2021/07/13 00:06:41;;;;;;;0.82;0.40;;;;;;;21.36;56.41;95972.59;4969178;28;20559;-59
2021/07/13 00:09:06;;;;;;;1.38;0.30;;;;;;;21.32;56.47;95968.88;4969055;28;20038;-59
2021/07/13 00:11:32;;;;;;;0.95;0.40;;;;;;;21.36;56.46;95978.03;4968670;28;20027;-59
2021/07/13 00:13:57;;;;;;;0.68;0.30;;;;;;;21.31;56.44;95974.56;4969062;28;20038;-59
2021/07/13 00:16:22;;;;;;;1.23;0.30;;;;;;;21.27;56.59;95954.59;4975699;28;20026;-59
2021/07/13 00:18:48;;;;;;;1.70;0.40;;;;;;;21.31;56.65;95953.69;4988469;28;20034;-59
2021/07/13 00:21:13;;;;;;;1.00;0.40;;;;;;;21.30;56.59;95945.88;4988095;28;20033;-59
2021/07/13 00:23:39;;;;;;;0.60;0.30;;;;;;;21.29;56.49;95930.75;4988353;28;20065;-59
2021/07/13 00:26:05;;;;;;;0.70;0.40;;;;;;;21.27;56.81;95916.69;4987020;28;20030;-59
2021/07/13 00:28:31;;;;;;;1.25;0.30;;;;;;;21.27;56.41;95905.84;4986693;28;20062;-59
2021/07/13 00:30:56;;;;;;;0.95;0.30;;;;;;;21.25;56.88;95908.88;4988394;28;20029;-59
2021/07/13 00:33:22;;;;;;;0.60;0.20;;;;;;;21.25;56.68;95930.53;4987982;28;20038;-59
2021/07/13 00:35:47;;;;;;;0.70;0.32;;;;;;;21.22;56.76;95947.41;4988518;28;20026;-59
2021/07/13 00:38:12;;;;;;;0.68;0.30;;;;;;;21.23;56.47;95967.94;4987933;28;20042;-59
2021/07/13 00:40:38;;;;;;;1.55;0.43;;;;;;;21.21;56.67;95966.66;4986767;28;20018;-59
2021/07/13 00:43:03;;;;;;;1.13;0.40;;;;;;;21.18;56.45;95970.78;4988014;28;20041;-59
2021/07/13 00:45:29;;;;;;;1.13;0.30;;;;;;;21.21;56.64;95985.63;4986676;28;20068;-59
2021/07/13 00:47:54;;;;;;;1.55;0.30;;;;;;;21.00;56.64;95958.91;4964236;28;20078;-59
2021/07/13 00:50:23;;;;;;;1.75;0.35;;;;;;;21.10;56.69;95982.31;4949230;28;20064;-59
2021/07/13 00:52:49;;;;;;;0.80;0.30;;;;;;;21.16;56.66;95989.22;4949200;28;20031;-60
2021/07/13 00:55:14;;;;;;;1.00;0.30;;;;;;;21.16;56.67;95991.91;4949392;28;20042;-60
2021/07/13 00:57:40;;;;;;;1.15;0.50;;;;;;;21.15;56.71;95987.63;4949318;28;20089;-59
2021/07/13 01:00:07;;;;;;;1.58;0.50;;;;;;;21.13;56.68;95982.50;4947924;28;20510;-59
2021/07/13 01:02:33;;;;;;;2.17;0.40;;;;;;;21.12;56.65;95977.38;4948968;28;20038;-60
2021/07/13 01:05:00;;;;;;;1.88;0.40;;;;;;;21.11;56.75;95975.78;4949291;28;20023;-59
2021/07/13 01:07:28;;;;;;;1.77;0.60;;;;;;;21.10;56.76;95961.44;4932326;29;20027;-59
2021/07/13 01:09:59;;;;;;;0.73;0.40;;;;;;;21.10;56.63;95938.97;4949347;29;20045;-60
2021/07/13 01:12:46;;;;;;;1.15;0.40;;;;;;;21.08;56.75;95887.81;4932341;29;20476;-61
2021/07/13 01:15:12;;;;;;;1.00;0.40;;;;;;;21.06;56.73;95867.53;4949217;28;20034;-61
2021/07/13 01:17:40;;;;;;;1.55;0.35;;;;;;;21.02;56.68;95870.06;4981581;28;20034;-59
2021/07/13 01:20:20;;;;;;;0.60;0.30;;;;;;;21.06;56.65;95906.28;4986641;28;20034;-60
2021/07/13 01:22:49;;;;;;;1.52;0.50;;;;;;;21.06;56.65;95914.41;4986413;28;20520;-60
2021/07/13 01:25:32;;;;;;;0.65;0.30;;;;;;;21.06;56.65;95919.00;4987462;28;20038;-61
2021/07/13 01:28:14;;;;;;;1.05;0.40;;;;;;;21.06;56.74;95932.53;4986796;28;20030;-61
2021/07/13 01:30:45;;;;;;;0.73;0.30;;;;;;;21.05;56.51;95936.34;4986471;28;20031;-60
2021/07/13 01:33:18;;;;;;;1.00;0.32;;;;;;;21.03;56.87;95935.88;5002445;28;20030;-62
2021/07/13 01:35:51;;;;;;;0.80;0.30;;;;;;;21.03;56.66;95935.88;4967059;28;20065;-60
2021/07/13 01:38:16;;;;;;;0.80;0.20;;;;;;;21.00;56.81;95937.25;4986319;28;20113;-62
2021/07/13 01:40:44;;;;;;;1.45;0.30;;;;;;;21.00;56.53;95929.13;4972381;28;20042;-62
2021/07/13 01:43:12;;;;;;;1.00;0.40;;;;;;;21.00;56.54;95923.72;4990054;28;20395;-60
2021/07/13 01:45:39;;;;;;;0.63;0.38;;;;;;;20.94;56.63;95905.97;4989716;28;20033;-60
2021/07/13 01:48:05;;;;;;;1.08;0.40;;;;;;;20.99;56.59;95915.88;4991243;28;20030;-59
2021/07/13 01:50:31;;;;;;;0.82;0.30;;;;;;;20.98;56.60;95906.16;4990836;28;20449;-59
2021/07/13 01:52:56;;;;;;;0.40;0.30;;;;;;;20.97;56.67;95916.19;4974003;28;20030;-59
2021/07/13 01:55:22;;;;;;;0.95;0.40;;;;;;;20.96;56.60;95902.97;4990794;28;20030;-59
2021/07/13 01:57:47;;;;;;;0.80;0.40;;;;;;;20.93;56.69;95890.81;4989854;28;20049;-59
2021/07/13 02:00:13;;;;;;;0.50;0.22;;;;;;;20.91;56.67;95885.72;4989574;28;20054;-59
2021/07/13 02:02:39;;;;;;;0.90;0.40;;;;;;;20.88;56.77;95878.19;4990792;28;20027;-59
2021/07/13 02:05:05;;;;;;;0.50;0.20;;;;;;;20.92;56.75;95876.50;4973480;28;20029;-59
2021/07/13 02:07:33;;;;;;;0.75;0.40;;;;;;;20.90;56.50;95861.66;4976662;28;20090;-60
2021/07/13 02:09:59;;;;;;;1.45;0.30;;;;;;;20.91;56.69;95857.81;4950803;29;20082;-60
2021/07/13 02:12:24;;;;;;;0.50;0.30;;;;;;;20.90;56.66;95858.94;4952140;28;20035;-59
2021/07/13 02:14:50;;;;;;;1.58;0.30;;;;;;;20.88;56.65;95858.44;4951841;28;20027;-59
2021/07/13 02:17:15;;;;;;;1.25;0.30;;;;;;;20.87;56.82;95849.50;4979672;28;20018;-59
2021/07/13 02:19:41;;;;;;;0.70;0.30;;;;;;;20.88;56.70;95845.72;4990565;28;20084;-59
2021/07/13 02:22:07;;;;;;;0.63;0.40;;;;;;;20.87;56.72;95840.59;4990877;28;20042;-59
2021/07/13 02:24:32;;;;;;;0.75;0.30;;;;;;;20.86;56.60;95839.00;4989057;28;20034;-59
2021/07/13 02:27:07;;;;;;;0.90;0.40;;;;;;;20.80;56.81;95835.56;4990693;28;20041;-60
2021/07/13 02:29:38;;;;;;;0.70;0.30;;;;;;;20.82;56.79;95849.63;4973168;28;20041;-59
2021/07/13 02:32:11;;;;;;;0.63;0.30;;;;;;;20.82;56.80;95844.22;4989140;28;20498;-59
2021/07/13 02:34:39;;;;;;;1.05;0.40;;;;;;;20.81;56.75;95848.03;4988842;28;20034;-59
2021/07/13 02:37:05;;;;;;;0.50;0.30;;;;;;;20.81;56.66;95841.81;4989106;28;20031;-59
2021/07/13 02:39:31;;;;;;;0.95;0.20;;;;;;;20.82;56.75;95843.41;4990184;28;20049;-60
2021/07/13 02:41:57;;;;;;;0.75;0.35;;;;;;;20.80;56.82;95843.69;4990822;28;20077;-60
2021/07/13 02:44:23;;;;;;;0.73;0.20;;;;;;;20.78;56.76;95840.50;4989479;28;20030;-60
2021/07/13 02:46:49;;;;;;;0.40;0.20;;;;;;;20.78;56.81;95840.50;4972887;28;20037;-59
2021/07/13 02:49:19;;;;;;;0.30;0.20;;;;;;;20.75;56.80;95835.69;4972485;28;20034;-59
2021/07/13 02:51:45;;;;;;;1.10;0.30;;;;;;;20.76;56.81;95836.47;4988806;28;20538;-59
2021/07/13 02:54:10;;;;;;;0.65;0.20;;;;;;;20.73;56.86;95827.06;4988538;28;20117;-59
2021/07/13 02:56:38;;;;;;;0.68;0.30;;;;;;;20.73;57.09;95837.06;4988815;28;20026;-59
2021/07/13 02:59:03;;;;;;;0.25;0.10;;;;;;;20.72;56.62;95830.88;4972862;28;20491;-59
2021/07/13 03:01:29;;;;;;;0.38;0.20;;;;;;;20.70;56.88;95833.09;4972260;28;20083;-59
2021/07/13 03:03:54;;;;;;;0.90;0.25;;;;;;;20.72;56.70;95830.88;4988990;28;20042;-59
2021/07/13 03:06:20;;;;;;;0.73;0.40;;;;;;;20.70;57.00;95835.78;4972321;28;20029;-59
2021/07/13 03:08:45;;;;;;;0.98;0.70;;;;;;;20.63;57.08;95827.28;4988474;28;20391;-59
2021/07/13 03:11:11;;;;;;;0.63;0.32;;;;;;;20.68;56.72;95830.66;4987986;28;20797;-60
2021/07/13 03:13:36;;;;;;;0.43;0.20;;;;;;;20.66;56.98;95821.25;4988232;28;20037;-60
2021/07/13 03:16:02;;;;;;;0.98;0.30;;;;;;;20.67;56.94;95820.16;4984043;28;20019;-59
2021/07/13 03:18:28;;;;;;;0.45;0.20;;;;;;;20.68;56.90;95829.88;4968895;28;20085;-60
2021/07/13 03:20:54;;;;;;;1.63;0.30;;;;;;;20.67;56.83;95820.16;4970475;28;20101;-59
2021/07/13 03:23:19;;;;;;;0.65;0.20;;;;;;;20.65;56.85;95817.72;4968345;28;20030;-59
2021/07/13 03:25:45;;;;;;;0.50;0.20;;;;;;;20.64;56.70;95816.13;4968668;28;20499;-59
2021/07/13 03:28:11;;;;;;;0.55;0.22;;;;;;;20.63;56.80;95808.34;4969616;28;20026;-59
2021/07/13 03:30:37;;;;;;;0.60;0.20;;;;;;;20.58;56.94;95800.28;4969800;28;20481;-60
2021/07/13 03:33:03;;;;;;;1.20;0.20;;;;;;;20.59;57.06;95805.44;4952641;28;20066;-59
2021/07/13 03:35:29;;;;;;;0.57;0.20;;;;;;;20.59;56.95;95799.22;4971035;28;20488;-59
2021/07/13 03:37:55;;;;;;;0.40;0.20;;;;;;;20.62;57.12;95809.41;4968914;28;20030;-59
2021/07/13 03:40:21;;;;;;;0.40;0.20;;;;;;;20.58;56.84;95801.09;4968103;28;20027;-59
2021/07/13 03:42:50;;;;;;;0.40;0.20;;;;;;;20.59;56.83;95801.91;4969599;28;20034;-59
2021/07/13 03:45:18;;;;;;;0.52;0.20;;;;;;;20.57;57.01;95796.78;4968385;28;20618;-59
2021/07/13 03:47:51;;;;;;;0.30;0.20;;;;;;;20.58;56.84;95798.38;4969882;28;20102;-59
2021/07/13 03:50:17;;;;;;;0.40;0.25;;;;;;;20.57;56.96;95798.69;4969126;28;20093;-60
2021/07/13 03:52:42;;;;;;;1.75;0.30;;;;;;;20.56;56.90;95797.09;4969351;28;20042;-59
2021/07/13 03:55:09;;;;;;;0.50;0.20;;;;;;;20.58;57.08;95803.00;4969545;28;20023;-59
2021/07/13 03:57:35;;;;;;;0.93;0.20;;;;;;;20.53;57.21;95803.13;4969280;28;20505;-59
2021/07/13 04:00:00;;;;;;;0.95;0.65;;;;;;;20.53;57.12;95803.91;4969327;28;20035;-59
2021/07/13 04:02:25;;;;;;;0.47;0.20;;;;;;;20.54;56.97;95804.72;4968724;28;20023;-61
2021/07/13 04:04:51;;;;;;;0.50;0.20;;;;;;;20.50;57.24;95801.00;4969366;28;20030;-62
2021/07/13 04:07:16;;;;;;;1.20;0.30;;;;;;;20.51;56.79;95810.72;4968782;28;20031;-60
2021/07/13 04:09:42;;;;;;;0.35;0.35;;;;;;;20.51;57.23;95806.09;4967400;28;20046;-60
2021/07/13 04:12:07;;;;;;;0.75;0.40;;;;;;;20.50;57.14;95801.00;4967695;28;20135;-60
2021/07/13 04:14:35;;;;;;;0.85;0.20;;;;;;;20.52;57.15;95806.94;4968772;28;20053;-59
2021/07/13 04:17:00;;;;;;;0.30;0.10;;;;;;;20.51;57.10;95795.28;4981191;28;20042;-62
2021/07/13 04:19:26;;;;;;;0.40;0.20;;;;;;;20.48;57.31;95798.59;4988439;28;20407;-60
2021/07/13 04:21:51;;;;;;;0.50;0.10;;;;;;;20.49;57.13;95799.38;4970701;28;20479;-61
2021/07/13 04:24:17;;;;;;;0.30;0.15;;;;;;;20.50;57.25;95792.88;4968283;28;20030;-61
2021/07/13 04:26:42;;;;;;;0.52;0.20;;;;;;;20.44;57.26;95776.72;4981071;28;20023;-61
2021/07/13 04:29:08;;;;;;;0.57;0.30;;;;;;;20.48;57.63;95782.34;4980228;28;20037;-62
2021/07/13 04:31:34;;;;;;;0.57;0.20;;;;;;;20.44;57.64;95784.84;4987507;28;20468;-62
2021/07/13 04:34:07;;;;;;;1.83;0.20;;;;;;;20.46;57.88;95778.34;4987921;28;20034;-61
2021/07/13 04:36:33;;;;;;;0.70;0.20;;;;;;;20.46;57.63;95786.44;4987471;28;20034;-62
2021/07/13 04:38:58;;;;;;;0.40;0.20;;;;;;;20.47;57.77;95790.75;4986532;28;20372;-62
2021/07/13 04:41:24;;;;;;;0.40;0.20;;;;;;;20.44;57.66;95779.44;4987882;28;20022;-61
2021/07/13 04:43:50;;;;;;;0.70;0.20;;;;;;;20.43;57.91;95783.22;4987762;28;20462;-60
2021/07/13 04:46:15;;;;;;;1.00;0.20;;;;;;;20.42;57.83;95783.53;4987572;28;20049;-59
2021/07/13 04:48:41;;;;;;;1.17;0.30;;;;;;;20.41;57.96;95785.44;4987708;28;20080;-60
2021/07/13 04:51:07;;;;;;;1.65;0.30;;;;;;;20.41;57.75;95782.75;4987564;28;20048;-60
2021/07/13 04:53:32;;;;;;;0.55;0.20;;;;;;;20.43;57.64;95775.09;4987451;28;20049;-59
2021/07/13 04:55:57;;;;;;;0.60;0.20;;;;;;;20.40;57.75;95781.13;4987754;28;20041;-59
2021/07/13 04:58:23;;;;;;;0.60;0.20;;;;;;;20.43;57.73;95774.31;4987678;28;20029;-59
2021/07/13 05:00:49;;;;;;;0.35;0.20;;;;;;;20.40;57.71;95778.41;4987567;28;20023;-59
2021/07/13 05:03:14;;;;;;;4.13;0.38;;;;;;;20.39;57.94;95766.00;4968986;28;20042;-59
2021/07/13 05:05:40;;;;;;;0.30;0.20;;;;;;;20.39;57.72;95765.19;4973006;28;20034;-59
2021/07/13 05:08:05;;;;;;;1.23;0.17;;;;;;;20.35;57.71;95762.28;4983173;28;20022;-59
2021/07/13 05:10:31;;;;;;;0.60;0.20;;;;;;;20.38;57.73;95761.69;4987259;28;20062;-59
2021/07/13 05:12:57;;;;;;;0.73;0.20;;;;;;;20.42;57.92;95759.19;4981435;28;20082;-59
2021/07/13 05:15:22;;;;;;;0.32;0.20;;;;;;;20.38;57.71;95755.50;4961159;28;20078;-59
2021/07/13 05:17:48;;;;;;;2.92;0.20;;;;;;;20.35;57.75;95751.47;4983182;28;20035;-59
2021/07/13 05:20:14;;;;;;;0.50;0.20;;;;;;;20.38;57.48;95747.38;4965867;28;20513;-59
2021/07/13 05:22:40;;;;;;;0.55;0.20;;;;;;;20.36;57.75;95752.28;4980387;28;20511;-58
2021/07/13 05:25:07;;;;;;;1.75;0.10;;;;;;;20.36;57.74;95747.66;4990763;28;20077;-59
2021/07/13 05:27:34;;;;;;;2.35;0.20;;;;;;;20.36;57.77;95757.69;4978090;28;20066;-59
2021/07/13 05:29:59;;;;;;;1.65;0.20;;;;;;;20.34;57.77;95758.00;4972842;28;20033;-59
2021/07/13 05:32:25;;;;;;;0.90;0.20;;;;;;;20.32;57.85;95757.47;4985723;28;20018;-58
2021/07/13 05:34:50;;;;;;;0.70;0.25;;;;;;;20.32;57.70;95749.38;4969858;28;20042;-58
2021/07/13 05:37:16;;;;;;;1.80;0.20;;;;;;;20.32;57.92;95756.69;4990466;28;20785;-60
2021/07/13 05:39:41;;;;;;;2.42;0.20;;;;;;;20.30;57.92;95757.00;4990800;28;20089;-59
2021/07/13 05:42:07;;;;;;;0.82;0.25;;;;;;;20.31;57.76;95755.88;4988873;28;20019;-59
2021/07/13 05:44:34;;;;;;;1.02;0.20;;;;;;;20.27;57.89;95754.88;4989722;28;20027;-59
2021/07/13 05:46:59;;;;;;;0.93;0.30;;;;;;;20.29;58.08;95754.56;4988893;28;20026;-59
2021/07/13 05:49:24;;;;;;;0.98;0.20;;;;;;;20.29;58.21;95762.69;4989326;28;20375;-59
2021/07/13 05:51:50;;;;;;;0.50;0.20;;;;;;;20.27;57.88;95767.59;4990880;28;20026;-59
2021/07/13 05:54:15;;;;;;;2.70;0.20;;;;;;;20.20;57.88;95757.19;4990149;28;20487;-59
2021/07/13 05:56:41;;;;;;;1.83;0.30;;;;;;;20.23;58.02;95756.59;4990318;28;20030;-59
2021/07/13 05:59:06;;;;;;;0.50;0.20;;;;;;;20.26;57.96;95772.22;4990344;28;20029;-59
2021/07/13 06:01:32;;;;;;;0.52;0.20;;;;;;;20.22;58.22;95759.56;4974975;28;20027;-59
2021/07/13 06:03:57;;;;;;;2.00;0.30;;;;;;;20.24;57.68;95760.09;4963573;28;20064;-59
2021/07/13 06:06:23;;;;;;;1.75;0.28;;;;;;;20.20;58.01;95762.59;4980294;28;20038;-59
2021/07/13 06:08:48;;;;;;;3.35;0.40;;;;;;;20.23;58.20;95764.69;4986614;28;20082;-59
2021/07/13 06:11:14;;;;;;;1.95;0.30;;;;;;;20.21;58.34;95769.59;4983149;28;20461;-60
2021/07/13 06:13:39;;;;;;;1.17;0.30;;;;;;;20.23;58.40;95772.00;4990308;28;20034;-59
2021/07/13 06:16:04;;;;;;;2.83;0.20;;;;;;;20.20;58.54;95766.09;4989558;28;20068;-59
2021/07/13 06:18:30;;;;;;;4.00;0.20;;;;;;;20.20;58.46;95776.91;4988810;28;20030;-58
2021/07/13 06:20:55;;;;;;;2.13;0.65;;;;;;;20.22;58.64;95781.22;4978539;28;20038;-59
2021/07/13 06:23:20;;;;;;;1.73;0.22;;;;;;;20.22;58.56;95775.81;4990129;28;20041;-59
2021/07/13 06:25:46;;;;;;;3.15;0.28;;;;;;;20.20;58.67;95779.63;4990080;28;20039;-59
2021/07/13 06:28:11;;;;;;;2.53;0.20;;;;;;;20.22;58.61;95779.31;4990025;28;20026;-59
2021/07/13 06:30:37;;;;;;;1.52;0.40;;;;;;;20.21;58.90;95785.81;4990461;28;20054;-59
2021/07/13 06:33:03;;;;;;;1.23;0.30;;;;;;;20.22;58.73;95784.72;4988423;28;20037;-59
2021/07/13 06:35:28;;;;;;;2.95;0.40;;;;;;;20.22;58.80;95786.63;4985929;28;20038;-59
2021/07/13 06:37:54;;;;;;;2.03;0.40;;;;;;;20.22;58.59;95789.31;4990087;28;20039;-59
2021/07/13 06:40:19;;;;;;;1.50;0.30;;;;;;;20.21;58.50;95796.63;4988346;28;20062;-60
2021/07/13 06:42:44;;;;;;;4.15;0.30;;;;;;;20.20;58.24;95798.53;4990115;28;20034;-58
2021/07/13 06:45:11;;;;;;;3.65;0.40;;;;;;;20.19;58.52;95801.56;4989620;28;20068;-59
2021/07/13 06:47:36;;;;;;;4.00;0.38;;;;;;;20.20;58.24;95800.44;4989332;28;20112;-60
2021/07/13 06:50:03;;;;;;;1.17;0.30;;;;;;;20.18;58.18;95797.22;4988654;28;20049;-60
2021/07/13 06:52:28;;;;;;;2.13;0.40;;;;;;;20.18;58.07;95800.72;4989465;28;20110;-60
2021/07/13 06:54:53;;;;;;;3.97;0.47;;;;;;;20.17;57.96;95793.72;4989560;28;20038;-60
2021/07/13 06:57:21;;;;;;;4.13;0.38;;;;;;;20.15;58.09;95798.66;4988027;28;20023;-61
2021/07/13 06:59:47;;;;;;;1.77;0.30;;;;;;;20.16;57.87;95796.75;4989576;28;20030;-63
2021/07/13 07:02:12;;;;;;;0.95;0.20;;;;;;;20.16;58.00;95796.75;4988310;28;20045;-61
2021/07/13 07:04:37;;;;;;;1.83;0.30;;;;;;;20.15;57.90;95804.06;4989065;28;20030;-62
2021/07/13 07:07:03;;;;;;;0.50;0.28;;;;;;;20.16;57.92;95804.84;4989149;28;20026;-61
2021/07/13 07:09:28;;;;;;;2.25;0.30;;;;;;;20.16;57.77;95802.16;4988676;28;20019;-60
2021/07/13 07:11:54;;;;;;;1.85;0.40;;;;;;;20.15;57.97;95805.94;4989241;28;20026;-62
2021/07/13 07:14:19;;;;;;;0.65;0.30;;;;;;;20.15;57.85;95814.03;4987559;28;20041;-62
2021/07/13 07:16:44;;;;;;;1.52;0.93;;;;;;;20.15;57.67;95806.75;4988856;28;20038;-62
2021/07/13 07:19:10;;;;;;;1.80;0.40;;;;;;;20.10;58.02;95806.03;4988733;28;20030;-62
2021/07/13 07:21:35;;;;;;;1.55;0.40;;;;;;;20.14;57.70;95815.94;4988905;28;20022;-62
2021/07/13 07:24:01;;;;;;;2.50;0.30;;;;;;;20.13;57.73;95819.75;4988829;28;20026;-60
2021/07/13 07:26:26;;;;;;;2.55;0.40;;;;;;;20.11;57.67;95821.94;4988838;28;20033;-60
2021/07/13 07:28:51;;;;;;;2.75;0.43;;;;;;;20.12;57.65;95826.28;4989156;28;20474;-62
2021/07/13 07:31:19;;;;;;;0.50;0.30;;;;;;;20.11;57.87;95827.34;4986533;28;20510;-63
2021/07/13 07:33:45;;;;;;;1.40;0.40;;;;;;;20.08;57.79;95822.56;4988832;28;20600;-63
2021/07/13 07:36:10;;;;;;;2.40;0.40;;;;;;;20.10;57.82;95830.38;4988699;28;20030;-63
2021/07/13 07:38:36;;;;;;;1.85;0.35;;;;;;;20.06;57.85;95824.75;4987991;28;20137;-63
2021/07/13 07:41:01;;;;;;;3.47;1.58;;;;;;;20.08;57.84;95829.84;4988712;28;20099;-60
2021/07/13 07:43:26;;;;;;;0.68;0.30;;;;;;;20.06;57.76;95829.34;4980412;28;20031;-60
2021/07/13 07:45:52;;;;;;;1.17;0.30;;;;;;;20.09;57.70;95831.47;4987255;28;20027;-59
2021/07/13 07:48:17;;;;;;;0.47;0.30;;;;;;;20.06;57.68;95824.75;4987811;28;20085;-60
2021/07/13 07:50:43;;;;;;;0.95;0.30;;;;;;;20.09;57.88;95834.19;4988566;28;20022;-60
2021/07/13 07:53:08;;;;;;;0.70;0.40;;;;;;;20.08;57.70;95833.38;4988525;28;20034;-60
2021/07/13 07:55:33;;;;;;;3.00;0.85;;;;;;;20.09;57.79;95836.88;4988294;28;20220;-60
2021/07/13 07:57:59;;;;;;;8.40;3.03;;;;;;;20.10;57.66;95827.66;4988945;28;20509;-60
2021/07/13 08:00:25;;;;;;;16.92;6.13;;;;;;;20.11;57.86;95832.75;4989032;28;20463;-60
2021/07/13 08:02:50;;;;;;;58.53;16.88;;;;;;;20.12;57.94;95839.00;4987208;28;20025;-60
2021/07/13 08:05:16;;;;;;;90.32;28.20;;;;;;;20.08;58.03;95832.56;4987068;28;20077;-60
2021/07/13 08:07:42;;;;;;;107.25;31.58;;;;;;;20.12;58.42;95836.28;4986958;28;20037;-59
2021/07/13 08:10:07;;;;;;;125.85;40.92;;;;;;;20.14;58.69;95834.06;4988089;28;20030;-60
2021/07/13 08:12:33;;;;;;;131.63;40.80;;;;;;;20.14;59.00;95832.16;4986433;28;20406;-60
2021/07/13 08:14:58;;;;;;;125.65;39.60;;;;;;;20.14;59.54;95839.47;4988142;28;20038;-60
2021/07/13 08:17:24;;;;;;;108.60;32.63;;;;;;;20.16;59.60;95842.72;4988118;28;20570;-60
2021/07/13 08:19:49;;;;;;;77.28;23.60;;;;;;;20.17;60.32;95838.91;4986516;28;20032;-60
2021/07/13 08:22:15;;;;;;;71.75;23.20;;;;;;;20.16;60.45;95837.31;4982846;28;20035;-60
2021/07/13 08:24:40;;;;;;;56.67;17.70;;;;;;;20.14;60.63;95825.97;4970337;28;20070;-60
2021/07/13 08:27:07;;;;;;;43.08;15.05;;;;;;;20.18;60.75;95835.09;4965421;28;20379;-60
2021/07/13 08:29:32;;;;;;;47.17;16.98;;;;;;;20.18;60.50;95825.06;4966996;28;20117;-60
2021/07/13 08:31:59;;;;;;;70.72;25.67;;;;;;;20.19;60.50;95826.69;4970858;28;20022;-61
2021/07/13 08:34:26;;;;;;;62.45;22.63;;;;;;;20.20;60.44;95828.28;4969076;28;20034;-60
2021/07/13 08:36:51;;;;;;;106.53;34.88;;;;;;;20.22;60.40;95827.97;4962680;28;20037;-60
2021/07/13 08:39:17;;;;;;;224.48;66.70;;;;;;;20.23;60.29;95824.19;4967859;28;20027;-62
2021/07/13 08:41:44;;;;;;;445.45;147.13;;;;;;;20.23;61.21;95826.91;4972920;28;20029;-60
2021/07/13 08:44:09;;;;;;;447.85;149.27;;;;;;;20.26;62.02;95828.19;4948067;28;20109;-60
2021/07/13 08:46:37;;;;;;;439.80;149.93;;;;;;;20.29;62.58;95833.81;4965994;28;20033;-61
2021/07/13 08:49:03;;;;;;;418.67;132.45;;;;;;;20.33;61.86;95821.28;4947690;28;20470;-60
2021/07/13 08:51:28;;;;;;;368.63;126.53;;;;;;;20.30;61.94;95824.59;4966345;28;20475;-60
2021/07/13 08:53:54;;;;;;;256.15;81.85;;;;;;;20.31;62.41;95826.19;4977945;28;20603;-64
2021/07/13 08:56:19;;;;;;;240.30;75.72;;;;;;;20.32;62.37;95835.91;4966877;28;20038;-60
2021/07/13 08:58:45;;;;;;;210.15;67.75;;;;;;;20.31;62.35;95833.53;4963049;28;20045;-60
2021/07/13 09:01:10;;;;;;;192.63;58.03;;;;;;;20.30;62.29;95826.47;4972020;28;20066;-61
2021/07/13 09:03:36;;;;;;;162.77;53.30;;;;;;;20.33;61.81;95829.41;4965809;28;20034;-61
2021/07/13 09:06:02;;;;;;;182.65;56.15;;;;;;;20.29;61.85;95820.28;4970799;28;20039;-61
2021/07/13 09:08:29;;;;;;;138.60;43.70;;;;;;;20.29;61.95;95828.38;4966743;28;20050;-60
2021/07/13 09:11:01;;;;;;;142.00;43.70;;;;;;;20.31;61.82;95833.53;4973794;28;20026;-59
2021/07/13 09:13:30;;;;;;;124.88;40.63;;;;;;;20.32;61.28;95835.13;4987179;28;20113;-59
2021/07/13 09:15:58;;;;;;;127.15;43.60;;;;;;;20.30;61.30;95834.59;4985864;28;20451;-65
2021/07/13 09:18:36;;;;;;;139.25;43.15;;;;;;;20.30;61.66;95842.72;4980313;28;20027;-59
2021/07/13 09:21:08;;;;;;;136.32;45.33;;;;;;;20.33;61.80;95851.03;4978386;28;20038;-60
2021/07/13 09:23:33;;;;;;;131.77;42.33;;;;;;;20.33;61.83;95847.53;4971553;28;20035;-61
2021/07/13 09:25:59;;;;;;;115.60;39.97;;;;;;;20.29;61.95;95850.03;4985190;28;20037;-59
2021/07/13 09:28:24;;;;;;;96.47;33.20;;;;;;;20.30;61.88;95851.66;4972518;28;20058;-59
2021/07/13 09:30:57;;;;;;;86.95;30.13;;;;;;;20.26;61.74;95842.53;4952289;28;20035;-63
2021/07/13 09:33:31;;;;;;;78.07;24.02;;;;;;;20.30;61.42;95853.53;4973298;28;20039;-61
2021/07/13 09:36:11;;;;;;;50.37;15.73;;;;;;;20.29;61.08;95852.72;4973598;28;20031;-60
2021/07/13 09:38:41;;;;;;;44.58;14.73;;;;;;;20.30;60.63;95864.34;4961690;28;20778;-60
2021/07/13 09:41:13;;;;;;;40.30;13.52;;;;;;;20.30;60.74;95861.66;4973817;28;20031;-60
2021/07/13 09:43:39;;;;;;;33.95;10.38;;;;;;;20.29;60.51;95862.75;4974390;28;20030;-61
2021/07/13 09:46:36;;;;;;;26.33;8.80;;;;;;;20.26;60.49;95861.47;4970074;28;20039;-59
2021/07/13 09:49:17;;;;;;;26.48;7.65;;;;;;;20.27;60.01;95864.97;4982748;28;20058;-59
2021/07/13 09:51:58;;;;;;;15.35;5.03;;;;;;;20.25;60.06;95867.94;4984564;28;20490;-60
2021/07/13 09:54:39;;;;;;;20.25;5.82;;;;;;;20.25;60.01;95867.94;4971664;28;20156;-61
2021/07/13 09:57:14;;;;;;;13.00;5.05;;;;;;;20.25;59.69;95867.94;4966687;28;20043;-59
2021/07/13 09:59:40;;;;;;;9.98;4.57;;;;;;;20.24;59.73;95863.66;4980118;28;20399;-61
2021/07/13 10:02:07;;;;;;;11.07;4.93;;;;;;;20.25;59.48;95864.44;4988908;28;20040;-61
2021/07/13 10:04:33;;;;;;;7.90;4.30;;;;;;;20.24;59.47;95860.94;4962153;28;20102;-61
2021/07/13 10:07:03;;;;;;;10.40;4.00;;;;;;;20.25;59.30;95859.03;4961750;28;21416;-59
2021/07/13 10:09:29;;;;;;;12.20;4.50;;;;;;;20.23;58.83;95856.66;4963649;28;20057;-57
2021/07/13 10:11:55;;;;;;;9.13;3.97;;;;;;;20.25;59.14;95850.94;4974951;28;20045;-60
2021/07/13 10:14:20;;;;;;;8.00;3.83;;;;;;;20.19;58.76;95844.81;4977814;28;20022;-60
2021/07/13 10:16:46;;;;;;;7.18;3.92;;;;;;;20.24;58.84;95852.84;4978284;28;20483;-60
2021/07/13 10:19:11;;;;;;;9.70;3.70;;;;;;;20.22;58.90;95846.09;4985141;28;20022;-62
2021/07/13 10:21:37;;;;;;;8.98;5.10;;;;;;;20.26;58.76;95857.94;4982288;28;20108;-59
2021/07/13 10:24:03;;;;;;;5.78;3.17;;;;;;;20.24;58.92;95852.84;4975609;28;20118;-58
2021/07/13 10:26:49;;;;;;;7.18;3.35;;;;;;;20.22;58.93;95852.31;4958133;28;20022;-62
2021/07/13 10:29:33;;;;;;;8.10;3.53;;;;;;;20.25;58.95;95864.44;4972265;28;20482;-61
2021/07/13 10:31:59;;;;;;;10.07;3.88;;;;;;;20.26;58.76;95852.53;4984391;28;20419;-61
2021/07/13 10:34:49;;;;;;;8.25;3.70;;;;;;;20.25;58.77;95850.94;4979831;28;20026;-62
2021/07/13 10:37:33;;;;;;;7.68;3.90;;;;;;;20.26;59.05;95855.22;4963804;28;20140;-61
2021/07/13 10:40:10;;;;;;;10.38;4.32;;;;;;;20.26;59.12;95857.94;4989786;28;20026;-62
2021/07/13 10:42:41;;;;;;;6.50;3.20;;;;;;;20.26;58.94;95849.81;4990029;28;20026;-60
2021/07/13 10:45:29;;;;;;;12.45;5.45;;;;;;;20.25;59.19;95849.03;4989913;28;20118;-60
2021/07/13 10:48:07;;;;;;;7.10;4.10;;;;;;;20.26;59.16;95845.25;4989615;28;20214;-60
2021/07/13 10:50:35;;;;;;;7.90;3.40;;;;;;;20.26;59.31;95849.81;4989016;28;20030;-60
2021/07/13 10:53:24;;;;;;;8.02;3.38;;;;;;;20.25;59.32;95849.03;4980873;28;20564;-60
2021/07/13 10:55:59;;;;;;;7.60;3.35;;;;;;;20.25;59.48;95848.22;4965157;28;20115;-60
2021/07/13 10:58:26;;;;;;;9.70;2.75;;;;;;;20.24;59.54;95839.31;4971755;28;20027;-61
2021/07/13 11:00:59;;;;;;;6.78;2.25;;;;;;;20.24;59.56;95835.81;4961864;28;20041;-61
2021/07/13 11:03:27;;;;;;;5.13;2.05;;;;;;;20.23;59.76;95842.31;4969006;28;20043;-60
2021/07/13 11:05:53;;;;;;;3.97;2.05;;;;;;;20.25;59.79;95840.09;4966114;28;20039;-60
2021/07/13 11:08:47;;;;;;;2.72;1.60;;;;;;;20.22;59.43;95836.09;4966991;28;20045;-61
2021/07/13 11:11:16;;;;;;;3.92;1.60;;;;;;;20.21;59.67;95834.50;4971849;28;20027;-61
2021/07/13 11:13:42;;;;;;;4.57;1.80;;;;;;;20.21;59.62;95837.19;4972180;28;20424;-61
2021/07/13 11:16:08;;;;;;;2.90;1.67;;;;;;;20.20;59.70;95835.59;4989178;28;20520;-60
2021/07/13 11:18:34;;;;;;;5.10;1.60;;;;;;;20.22;59.55;95840.69;4988880;28;20023;-60
2021/07/13 11:21:31;;;;;;;3.03;1.27;;;;;;;20.20;59.55;95846.41;4980292;28;20023;-60
2021/07/13 11:24:17;;;;;;;4.38;1.30;;;;;;;20.19;59.67;95842.91;4966868;28;20121;-60
2021/07/13 11:26:45;;;;;;;2.67;1.38;;;;;;;20.19;59.49;95850.22;4968497;28;20097;-61
2021/07/13 11:29:18;;;;;;;2.20;1.45;;;;;;;20.19;59.21;95851.03;4967998;28;20078;-60
2021/07/13 11:31:46;;;;;;;3.25;1.77;;;;;;;20.17;59.33;95844.31;4958485;28;20034;-60